createdAt,value
2022-10-13T00:05:55.603Z,12.90
2022-10-13T00:16:25.187Z,15.40
2022-10-13T00:26:54.184Z,19.80
2022-10-13T00:37:21.648Z,21.90
2022-10-13T00:47:52.914Z,19.70
2022-10-13T00:58:23.205Z,15.60
2022-10-13T01:08:50.915Z,17.70
2022-10-13T01:19:37.893Z,17.60
2022-10-13T01:30:16.053Z,14.40
2022-10-13T01:40:49.082Z,11.90
2022-10-13T01:51:20.482Z,17.00
2022-10-13T02:02:02.051Z,14.10
2022-10-13T02:12:32.472Z,14.90
2022-10-13T02:23:04.066Z,20.60
2022-10-13T02:33:31.966Z,12.80
2022-10-13T02:43:59.447Z,18.80
2022-10-13T02:54:27.070Z,17.20
2022-10-13T03:04:54.627Z,19.70
2022-10-13T03:15:22.095Z,16.20
2022-10-13T03:25:49.611Z,15.70
2022-10-13T03:36:17.282Z,21.00
2022-10-13T03:46:44.872Z,20.40
2022-10-13T03:57:12.393Z,17.20
2022-10-13T04:07:40.002Z,20.80
2022-10-13T04:18:09.500Z,19.80
2022-10-13T04:28:37.680Z,21.10
2022-10-13T04:39:06.769Z,20.30
2022-10-13T04:49:34.267Z,19.60
2022-10-13T05:00:01.844Z,18.70
2022-10-13T05:10:34.536Z,17.40
2022-10-13T05:21:09.583Z,20.10
2022-10-13T05:31:38.348Z,20.30
2022-10-13T05:42:06.225Z,22.90
2022-10-13T05:52:35.239Z,24.70
2022-10-13T06:03:08.761Z,21.30
2022-10-13T06:13:36.641Z,29.40
2022-10-13T06:24:04.141Z,26.70
2022-10-13T06:34:31.781Z,24.60
2022-10-13T06:44:59.452Z,24.00
2022-10-13T06:55:27.004Z,29.40
2022-10-13T07:05:54.920Z,38.40
2022-10-13T07:16:23.169Z,37.30
2022-10-13T07:26:50.751Z,33.90
2022-10-13T07:37:18.758Z,29.40
2022-10-13T07:47:46.546Z,30.80
2022-10-13T07:58:14.186Z,26.60
2022-10-13T08:08:42.011Z,29.50
2022-10-13T08:19:09.716Z,28.70
2022-10-13T08:29:37.754Z,27.90
2022-10-13T08:40:05.883Z,25.90
2022-10-13T08:50:36.933Z,22.70
2022-10-13T09:01:12.911Z,21.80
2022-10-13T09:11:43.571Z,21.00
2022-10-13T09:22:24.722Z,19.40
2022-10-13T09:32:52.364Z,18.10
2022-10-13T09:43:32.488Z,26.70
2022-10-13T09:54:00.074Z,22.50
2022-10-13T10:04:35.266Z,15.50
2022-10-13T10:15:02.799Z,20.10
2022-10-13T10:25:35.491Z,16.80
2022-10-13T10:36:16.776Z,18.30
2022-10-13T10:46:49.018Z,17.10
2022-10-13T10:57:22.998Z,15.90
2022-10-13T11:08:01.380Z,11.10
2022-10-13T11:19:09.042Z,11.80
2022-10-13T11:29:57.406Z,14.20
2022-10-13T11:40:32.865Z,11.10
2022-10-13T11:51:15.451Z,10.90
2022-10-13T12:01:53.821Z,18.20
2022-10-13T12:12:23.083Z,42.40
2022-10-13T12:22:52.492Z,15.60
2022-10-13T12:33:27.988Z,17.20
2022-10-13T12:43:56.615Z,15.30
2022-10-13T12:54:28.713Z,14.70
2022-10-13T13:04:56.259Z,15.80
2022-10-13T13:15:38.685Z,15.70
2022-10-13T13:26:13.406Z,17.80
2022-10-13T13:36:41.836Z,16.50
2022-10-13T13:47:17.319Z,20.90
2022-10-13T13:57:46.397Z,18.90
2022-10-13T14:08:13.934Z,22.10
2022-10-13T14:18:42.075Z,31.30
2022-10-13T14:29:09.656Z,24.10
2022-10-13T14:50:03.313Z,15.80
2022-10-13T15:11:02.989Z,17.80
2022-10-13T15:21:30.627Z,15.10
2022-10-13T15:42:35.594Z,20.70
2022-10-13T16:03:30.025Z,23.30
2022-10-13T16:13:57.762Z,24.00
2022-10-13T16:24:25.474Z,16.60
2022-10-13T16:34:53.114Z,15.80
2022-10-13T16:45:41.195Z,15.70
2022-10-13T16:56:10.960Z,12.30
2022-10-13T17:06:39.635Z,14.70
2022-10-13T17:17:07.757Z,15.50
2022-10-13T17:27:37.518Z,12.70
2022-10-13T17:38:05.028Z,13.40
2022-10-13T17:48:32.741Z,15.80
2022-10-13T17:59:00.418Z,11.70
2022-10-13T18:09:28.045Z,15.40
2022-10-13T18:19:55.814Z,13.80
2022-10-13T18:30:23.481Z,18.90
2022-10-13T18:40:51.098Z,17.20
2022-10-13T18:51:20.408Z,21.20
2022-10-13T19:01:48.811Z,19.70
2022-10-13T19:12:16.488Z,21.50
2022-10-13T19:22:44.027Z,33.40
2022-10-13T19:33:13.605Z,26.40
2022-10-13T19:43:41.165Z,19.60
2022-10-13T19:54:09.492Z,23.40
2022-10-13T20:04:39.523Z,30.10
2022-10-13T20:15:08.243Z,79.40
2022-10-13T20:25:39.068Z,42.70
2022-10-13T20:36:08.918Z,45.80
2022-10-13T20:46:36.721Z,43.40
2022-10-13T20:57:04.300Z,32.30
2022-10-13T21:07:31.881Z,37.90
2022-10-13T21:17:59.510Z,42.70
2022-10-13T21:28:27.251Z,47.00
2022-10-13T21:38:56.287Z,44.60
2022-10-13T21:49:24.294Z,48.90
2022-10-13T21:59:52.041Z,42.80
2022-10-13T22:10:19.841Z,35.70
2022-10-13T22:20:47.542Z,33.20
2022-10-13T22:31:16.165Z,30.20
2022-10-13T22:41:43.915Z,30.50
2022-10-13T22:52:11.561Z,28.20
2022-10-13T23:02:39.268Z,31.60
2022-10-13T23:13:07.507Z,35.40
2022-10-13T23:23:35.834Z,32.70
2022-10-13T23:44:30.051Z,28.00
